sensor_id;sensor_type;location;lat;lon;timestamp;P1;durP1;ratioP1;P2;durP2;ratioP2
57263;SDS011;43113;53.124;6.092;2022-11-20T00:03:52;11.83;;;6.10;;
57263;SDS011;43113;53.124;6.092;2022-11-20T00:06:19;13.27;;;6.30;;
57263;SDS011;43113;53.124;6.092;2022-11-20T00:08:46;13.80;;;7.80;;
57263;SDS011;43113;53.124;6.092;2022-11-20T00:11:16;14.57;;;6.73;;
57263;SDS011;43113;53.124;6.092;2022-11-20T00:13:44;11.17;;;5.53;;
57263;SDS011;43113;53.124;6.092;2022-11-20T00:16:12;12.33;;;5.80;;
57263;SDS011;43113;53.124;6.092;2022-11-20T00:18:39;11.97;;;6.50;;
57263;SDS011;43113;53.124;6.092;2022-11-20T00:21:11;11.93;;;5.80;;
57263;SDS011;43113;53.124;6.092;2022-11-20T00:23:39;13.60;;;6.20;;
57263;SDS011;43113;53.124;6.092;2022-11-20T00:26:09;12.00;;;5.97;;
57263;SDS011;43113;53.124;6.092;2022-11-20T00:28:36;11.90;;;5.27;;
57263;SDS011;43113;53.124;6.092;2022-11-20T00:31:03;11.33;;;5.53;;
57263;SDS011;43113;53.124;6.092;2022-11-20T00:33:31;10.63;;;5.53;;
57263;SDS011;43113;53.124;6.092;2022-11-20T00:36:04;12.87;;;5.97;;
57263;SDS011;43113;53.124;6.092;2022-11-20T00:38:32;9.73;;;5.70;;
57263;SDS011;43113;53.124;6.092;2022-11-20T00:40:58;13.33;;;5.80;;
57263;SDS011;43113;53.124;6.092;2022-11-20T00:43:25;11.10;;;6.00;;
57263;SDS011;43113;53.124;6.092;2022-11-20T00:45:58;13.40;;;6.40;;
57263;SDS011;43113;53.124;6.092;2022-11-20T00:48:25;11.50;;;5.63;;
57263;SDS011;43113;53.124;6.092;2022-11-20T00:50:51;10.47;;;4.50;;
57263;SDS011;43113;53.124;6.092;2022-11-20T00:53:17;10.20;;;5.23;;
57263;SDS011;43113;53.124;6.092;2022-11-20T00:55:46;15.37;;;7.10;;
57263;SDS011;43113;53.124;6.092;2022-11-20T00:58:38;12.03;;;5.40;;
57263;SDS011;43113;53.124;6.092;2022-11-20T01:03:38;11.00;;;5.97;;
57263;SDS011;43113;53.124;6.092;2022-11-20T01:06:06;11.23;;;5.30;;
57263;SDS011;43113;53.124;6.092;2022-11-20T01:08:34;10.33;;;5.23;;
57263;SDS011;43113;53.124;6.092;2022-11-20T01:11:01;9.90;;;5.27;;
57263;SDS011;43113;53.124;6.092;2022-11-20T01:13:29;13.43;;;6.43;;
57263;SDS011;43113;53.124;6.092;2022-11-20T01:16:20;12.87;;;6.43;;
57263;SDS011;43113;53.124;6.092;2022-11-20T01:18:48;10.98;;;5.40;;
57263;SDS011;43113;53.124;6.092;2022-11-20T01:21:20;12.20;;;5.00;;
57263;SDS011;43113;53.124;6.092;2022-11-20T01:23:56;14.50;;;6.37;;
57263;SDS011;43113;53.124;6.092;2022-11-20T01:26:23;11.67;;;5.33;;
57263;SDS011;43113;53.124;6.092;2022-11-20T01:28:51;11.53;;;5.63;;
57263;SDS011;43113;53.124;6.092;2022-11-20T01:33:47;8.87;;;4.93;;
57263;SDS011;43113;53.124;6.092;2022-11-20T01:36:15;11.27;;;5.60;;
57263;SDS011;43113;53.124;6.092;2022-11-20T01:38:42;11.17;;;6.10;;
57263;SDS011;43113;53.124;6.092;2022-11-20T01:41:08;10.37;;;5.20;;
57263;SDS011;43113;53.124;6.092;2022-11-20T01:43:35;9.80;;;5.07;;
57263;SDS011;43113;53.124;6.092;2022-11-20T01:46:12;11.70;;;5.23;;
57263;SDS011;43113;53.124;6.092;2022-11-20T01:48:58;7.57;;;4.33;;
57263;SDS011;43113;53.124;6.092;2022-11-20T01:51:40;10.47;;;4.57;;
57263;SDS011;43113;53.124;6.092;2022-11-20T01:54:29;16.40;;;7.10;;
57263;SDS011;43113;53.124;6.092;2022-11-20T01:57:01;13.97;;;6.10;;
57263;SDS011;43113;53.124;6.092;2022-11-20T01:59:28;10.90;;;5.13;;
57263;SDS011;43113;53.124;6.092;2022-11-20T02:01:55;11.20;;;5.30;;
57263;SDS011;43113;53.124;6.092;2022-11-20T02:04:20;13.23;;;6.00;;
57263;SDS011;43113;53.124;6.092;2022-11-20T02:06:49;11.70;;;5.80;;
57263;SDS011;43113;53.124;6.092;2022-11-20T02:09:26;10.03;;;5.33;;
57263;SDS011;43113;53.124;6.092;2022-11-20T02:11:52;11.30;;;4.73;;
57263;SDS011;43113;53.124;6.092;2022-11-20T02:14:19;11.10;;;5.43;;
57263;SDS011;43113;53.124;6.092;2022-11-20T02:16:47;13.20;;;5.67;;
57263;SDS011;43113;53.124;6.092;2022-11-20T02:22:02;9.73;;;5.33;;
57263;SDS011;43113;53.124;6.092;2022-11-20T02:24:43;10.90;;;5.17;;
57263;SDS011;43113;53.124;6.092;2022-11-20T02:27:11;13.67;;;6.20;;
57263;SDS011;43113;53.124;6.092;2022-11-20T02:29:39;8.43;;;4.07;;
57263;SDS011;43113;53.124;6.092;2022-11-20T02:32:27;8.73;;;4.70;;
57263;SDS011;43113;53.124;6.092;2022-11-20T02:34:55;10.53;;;4.63;;
57263;SDS011;43113;53.124;6.092;2022-11-20T02:37:21;9.07;;;4.40;;
57263;SDS011;43113;53.124;6.092;2022-11-20T02:39:49;10.43;;;5.37;;
57263;SDS011;43113;53.124;6.092;2022-11-20T02:42:16;11.93;;;5.67;;
57263;SDS011;43113;53.124;6.092;2022-11-20T02:44:42;13.03;;;5.90;;
57263;SDS011;43113;53.124;6.092;2022-11-20T02:47:08;10.13;;;5.33;;
57263;SDS011;43113;53.124;6.092;2022-11-20T02:49:34;9.30;;;5.43;;
57263;SDS011;43113;53.124;6.092;2022-11-20T02:52:00;11.90;;;5.57;;
57263;SDS011;43113;53.124;6.092;2022-11-20T02:54:26;11.67;;;5.57;;
57263;SDS011;43113;53.124;6.092;2022-11-20T02:56:52;13.10;;;6.17;;
57263;SDS011;43113;53.124;6.092;2022-11-20T02:59:17;13.23;;;6.37;;
57263;SDS011;43113;53.124;6.092;2022-11-20T03:01:43;13.80;;;6.50;;
57263;SDS011;43113;53.124;6.092;2022-11-20T03:04:09;11.23;;;5.80;;
57263;SDS011;43113;53.124;6.092;2022-11-20T03:06:35;11.33;;;5.77;;
57263;SDS011;43113;53.124;6.092;2022-11-20T03:09:00;10.27;;;5.23;;
57263;SDS011;43113;53.124;6.092;2022-11-20T03:11:26;9.37;;;4.80;;
57263;SDS011;43113;53.124;6.092;2022-11-20T03:13:52;10.00;;;4.40;;
57263;SDS011;43113;53.124;6.092;2022-11-20T03:16:18;11.03;;;5.20;;
57263;SDS011;43113;53.124;6.092;2022-11-20T03:18:45;10.77;;;5.40;;
57263;SDS011;43113;53.124;6.092;2022-11-20T03:21:12;10.47;;;4.63;;
57263;SDS011;43113;53.124;6.092;2022-11-20T03:23:39;10.50;;;5.93;;
57263;SDS011;43113;53.124;6.092;2022-11-20T03:28:34;11.90;;;6.47;;
57263;SDS011;43113;53.124;6.092;2022-11-20T03:31:04;12.77;;;5.67;;
57263;SDS011;43113;53.124;6.092;2022-11-20T03:33:31;10.97;;;5.37;;
57263;SDS011;43113;53.124;6.092;2022-11-20T03:36:00;10.57;;;5.03;;
57263;SDS011;43113;53.124;6.092;2022-11-20T03:38:30;11.77;;;5.33;;
57263;SDS011;43113;53.124;6.092;2022-11-20T03:43:55;10.10;;;5.18;;
57263;SDS011;43113;53.124;6.092;2022-11-20T03:46:21;9.83;;;4.60;;
57263;SDS011;43113;53.124;6.092;2022-11-20T03:48:47;9.00;;;5.30;;
57263;SDS011;43113;53.124;6.092;2022-11-20T03:51:14;9.97;;;5.47;;
57263;SDS011;43113;53.124;6.092;2022-11-20T03:53:43;11.73;;;5.57;;
57263;SDS011;43113;53.124;6.092;2022-11-20T03:56:10;10.00;;;4.93;;
57263;SDS011;43113;53.124;6.092;2022-11-20T03:58:37;9.13;;;5.07;;
57263;SDS011;43113;53.124;6.092;2022-11-20T04:01:07;8.00;;;4.53;;
57263;SDS011;43113;53.124;6.092;2022-11-20T04:03:36;9.73;;;5.23;;
57263;SDS011;43113;53.124;6.092;2022-11-20T04:06:03;10.03;;;4.60;;
57263;SDS011;43113;53.124;6.092;2022-11-20T04:08:30;9.73;;;5.47;;
57263;SDS011;43113;53.124;6.092;2022-11-20T04:10:56;11.00;;;4.60;;
57263;SDS011;43113;53.124;6.092;2022-11-20T04:13:56;13.07;;;5.57;;
57263;SDS011;43113;53.124;6.092;2022-11-20T04:16:25;9.10;;;5.30;;
57263;SDS011;43113;53.124;6.092;2022-11-20T04:18:51;10.73;;;5.53;;
57263;SDS011;43113;53.124;6.092;2022-11-20T04:21:19;12.47;;;5.57;;
57263;SDS011;43113;53.124;6.092;2022-11-20T04:23:45;11.27;;;4.83;;
57263;SDS011;43113;53.124;6.092;2022-11-20T04:26:11;12.33;;;5.17;;
57263;SDS011;43113;53.124;6.092;2022-11-20T04:28:37;7.27;;;4.30;;
57263;SDS011;43113;53.124;6.092;2022-11-20T04:33:31;7.40;;;4.87;;
57263;SDS011;43113;53.124;6.092;2022-11-20T04:35:59;8.60;;;4.47;;
57263;SDS011;43113;53.124;6.092;2022-11-20T04:38:27;9.27;;;4.83;;
57263;SDS011;43113;53.124;6.092;2022-11-20T04:40:55;8.87;;;4.87;;
57263;SDS011;43113;53.124;6.092;2022-11-20T04:43:25;9.13;;;5.27;;
57263;SDS011;43113;53.124;6.092;2022-11-20T04:45:51;9.63;;;4.47;;
57263;SDS011;43113;53.124;6.092;2022-11-20T04:48:21;9.70;;;5.07;;
57263;SDS011;43113;53.124;6.092;2022-11-20T04:50:47;9.63;;;4.57;;
57263;SDS011;43113;53.124;6.092;2022-11-20T04:53:12;8.07;;;4.30;;
57263;SDS011;43113;53.124;6.092;2022-11-20T04:55:38;9.83;;;4.37;;
57263;SDS011;43113;53.124;6.092;2022-11-20T04:58:04;9.10;;;4.83;;
57263;SDS011;43113;53.124;6.092;2022-11-20T05:00:30;7.87;;;3.87;;
57263;SDS011;43113;53.124;6.092;2022-11-20T05:02:56;7.80;;;4.17;;
57263;SDS011;43113;53.124;6.092;2022-11-20T05:05:22;7.57;;;4.30;;
57263;SDS011;43113;53.124;6.092;2022-11-20T05:07:47;10.67;;;4.93;;
57263;SDS011;43113;53.124;6.092;2022-11-20T05:10:13;10.30;;;5.40;;
57263;SDS011;43113;53.124;6.092;2022-11-20T05:12:39;9.70;;;4.63;;
57263;SDS011;43113;53.124;6.092;2022-11-20T05:15:05;9.30;;;4.57;;
57263;SDS011;43113;53.124;6.092;2022-11-20T05:17:31;7.83;;;4.53;;
57263;SDS011;43113;53.124;6.092;2022-11-20T05:19:57;9.57;;;4.50;;
57263;SDS011;43113;53.124;6.092;2022-11-20T05:22:22;11.00;;;5.00;;
57263;SDS011;43113;53.124;6.092;2022-11-20T05:24:48;9.73;;;4.60;;
57263;SDS011;43113;53.124;6.092;2022-11-20T05:27:14;9.07;;;4.60;;
57263;SDS011;43113;53.124;6.092;2022-11-20T05:29:40;8.07;;;4.60;;
57263;SDS011;43113;53.124;6.092;2022-11-20T05:32:06;9.47;;;4.70;;
57263;SDS011;43113;53.124;6.092;2022-11-20T05:34:34;8.73;;;5.10;;
57263;SDS011;43113;53.124;6.092;2022-11-20T05:37:00;8.93;;;4.57;;
57263;SDS011;43113;53.124;6.092;2022-11-20T05:39:27;9.47;;;4.60;;
57263;SDS011;43113;53.124;6.092;2022-11-20T05:41:52;11.33;;;5.70;;
57263;SDS011;43113;53.124;6.092;2022-11-20T05:44:38;9.03;;;4.40;;
57263;SDS011;43113;53.124;6.092;2022-11-20T05:47:04;9.53;;;4.33;;
57263;SDS011;43113;53.124;6.092;2022-11-20T05:49:31;9.60;;;4.80;;
57263;SDS011;43113;53.124;6.092;2022-11-20T05:51:57;8.40;;;5.03;;
57263;SDS011;43113;53.124;6.092;2022-11-20T05:54:23;10.53;;;5.23;;
57263;SDS011;43113;53.124;6.092;2022-11-20T05:56:48;9.83;;;4.73;;
57263;SDS011;43113;53.124;6.092;2022-11-20T05:59:14;12.83;;;5.90;;
57263;SDS011;43113;53.124;6.092;2022-11-20T06:01:40;9.30;;;4.37;;
57263;SDS011;43113;53.124;6.092;2022-11-20T06:04:06;8.60;;;4.70;;
57263;SDS011;43113;53.124;6.092;2022-11-20T06:06:32;8.63;;;4.90;;
57263;SDS011;43113;53.124;6.092;2022-11-20T06:08:57;8.70;;;4.40;;
57263;SDS011;43113;53.124;6.092;2022-11-20T06:11:24;11.77;;;5.90;;
57263;SDS011;43113;53.124;6.092;2022-11-20T06:13:50;12.97;;;5.80;;
57263;SDS011;43113;53.124;6.092;2022-11-20T06:16:18;9.47;;;4.60;;
57263;SDS011;43113;53.124;6.092;2022-11-20T06:18:45;11.47;;;5.47;;
57263;SDS011;43113;53.124;6.092;2022-11-20T06:21:13;11.30;;;5.70;;
57263;SDS011;43113;53.124;6.092;2022-11-20T06:23:44;9.70;;;4.97;;
57263;SDS011;43113;53.124;6.092;2022-11-20T06:26:14;9.67;;;4.97;;
57263;SDS011;43113;53.124;6.092;2022-11-20T06:28:44;14.13;;;5.93;;
57263;SDS011;43113;53.124;6.092;2022-11-20T06:31:10;11.43;;;5.87;;
57263;SDS011;43113;53.124;6.092;2022-11-20T06:33:38;10.00;;;5.17;;
57263;SDS011;43113;53.124;6.092;2022-11-20T06:36:04;11.10;;;5.47;;
57263;SDS011;43113;53.124;6.092;2022-11-20T06:38:30;10.47;;;6.03;;
57263;SDS011;43113;53.124;6.092;2022-11-20T06:40:56;9.40;;;5.53;;
57263;SDS011;43113;53.124;6.092;2022-11-20T06:43:24;10.00;;;5.03;;
57263;SDS011;43113;53.124;6.092;2022-11-20T06:45:54;11.50;;;6.40;;
57263;SDS011;43113;53.124;6.092;2022-11-20T06:48:20;11.73;;;6.00;;
57263;SDS011;43113;53.124;6.092;2022-11-20T06:50:47;9.67;;;5.50;;
57263;SDS011;43113;53.124;6.092;2022-11-20T06:53:12;10.43;;;5.43;;
57263;SDS011;43113;53.124;6.092;2022-11-20T06:55:41;13.07;;;5.97;;
57263;SDS011;43113;53.124;6.092;2022-11-20T06:58:09;11.93;;;4.83;;
57263;SDS011;43113;53.124;6.092;2022-11-20T07:00:35;11.00;;;5.20;;
57263;SDS011;43113;53.124;6.092;2022-11-20T07:03:04;11.57;;;5.77;;
57263;SDS011;43113;53.124;6.092;2022-11-20T07:05:30;13.23;;;4.97;;
57263;SDS011;43113;53.124;6.092;2022-11-20T07:07:56;10.77;;;5.40;;
57263;SDS011;43113;53.124;6.092;2022-11-20T07:10:23;9.20;;;4.73;;
57263;SDS011;43113;53.124;6.092;2022-11-20T07:12:49;9.80;;;4.83;;
57263;SDS011;43113;53.124;6.092;2022-11-20T07:15:16;10.90;;;5.30;;
57263;SDS011;43113;53.124;6.092;2022-11-20T07:17:42;9.07;;;4.67;;
57263;SDS011;43113;53.124;6.092;2022-11-20T07:20:09;8.63;;;4.70;;
57263;SDS011;43113;53.124;6.092;2022-11-20T07:22:35;10.93;;;4.90;;
57263;SDS011;43113;53.124;6.092;2022-11-20T07:25:00;11.60;;;5.40;;
57263;SDS011;43113;53.124;6.092;2022-11-20T07:27:27;14.17;;;5.77;;
57263;SDS011;43113;53.124;6.092;2022-11-20T07:29:53;12.47;;;5.63;;
57263;SDS011;43113;53.124;6.092;2022-11-20T07:32:19;8.53;;;4.90;;
57263;SDS011;43113;53.124;6.092;2022-11-20T07:34:44;9.93;;;5.30;;
57263;SDS011;43113;53.124;6.092;2022-11-20T07:37:11;11.27;;;5.67;;
57263;SDS011;43113;53.124;6.092;2022-11-20T07:39:37;9.27;;;5.23;;
57263;SDS011;43113;53.124;6.092;2022-11-20T07:42:05;10.90;;;5.50;;
57263;SDS011;43113;53.124;6.092;2022-11-20T07:44:31;9.80;;;5.47;;
57263;SDS011;43113;53.124;6.092;2022-11-20T07:46:57;9.47;;;4.83;;
57263;SDS011;43113;53.124;6.092;2022-11-20T07:49:23;11.40;;;5.70;;
57263;SDS011;43113;53.124;6.092;2022-11-20T07:51:52;12.33;;;5.90;;
57263;SDS011;43113;53.124;6.092;2022-11-20T07:54:19;11.23;;;5.90;;
57263;SDS011;43113;53.124;6.092;2022-11-20T07:56:45;11.23;;;5.20;;
57263;SDS011;43113;53.124;6.092;2022-11-20T07:59:11;11.80;;;5.50;;
57263;SDS011;43113;53.124;6.092;2022-11-20T08:01:38;10.23;;;5.27;;
57263;SDS011;43113;53.124;6.092;2022-11-20T08:04:04;10.97;;;5.47;;
57263;SDS011;43113;53.124;6.092;2022-11-20T08:06:29;10.10;;;5.57;;
57263;SDS011;43113;53.124;6.092;2022-11-20T08:08:56;11.10;;;5.73;;
57263;SDS011;43113;53.124;6.092;2022-11-20T08:11:21;10.23;;;5.43;;
57263;SDS011;43113;53.124;6.092;2022-11-20T08:14:05;11.77;;;6.13;;
57263;SDS011;43113;53.124;6.092;2022-11-20T08:16:40;11.93;;;6.30;;
57263;SDS011;43113;53.124;6.092;2022-11-20T08:19:11;12.67;;;6.57;;
57263;SDS011;43113;53.124;6.092;2022-11-20T08:21:37;10.03;;;5.50;;
57263;SDS011;43113;53.124;6.092;2022-11-20T08:24:04;11.00;;;4.77;;
57263;SDS011;43113;53.124;6.092;2022-11-20T08:26:30;10.37;;;5.53;;
57263;SDS011;43113;53.124;6.092;2022-11-20T08:28:56;12.33;;;5.23;;
57263;SDS011;43113;53.124;6.092;2022-11-20T08:31:22;10.27;;;5.33;;
57263;SDS011;43113;53.124;6.092;2022-11-20T08:33:49;12.93;;;5.13;;
57263;SDS011;43113;53.124;6.092;2022-11-20T08:36:15;10.57;;;5.27;;
57263;SDS011;43113;53.124;6.092;2022-11-20T08:38:42;9.07;;;5.00;;
57263;SDS011;43113;53.124;6.092;2022-11-20T08:41:11;10.13;;;4.93;;
57263;SDS011;43113;53.124;6.092;2022-11-20T08:44:10;8.97;;;5.27;;
57263;SDS011;43113;53.124;6.092;2022-11-20T08:46:41;12.60;;;5.32;;
57263;SDS011;43113;53.124;6.092;2022-11-20T08:49:09;9.80;;;5.33;;
57263;SDS011;43113;53.124;6.092;2022-11-20T08:51:36;13.87;;;5.87;;
57263;SDS011;43113;53.124;6.092;2022-11-20T08:54:03;10.73;;;5.43;;
57263;SDS011;43113;53.124;6.092;2022-11-20T08:56:29;13.53;;;5.83;;
57263;SDS011;43113;53.124;6.092;2022-11-20T08:58:55;9.30;;;4.90;;
57263;SDS011;43113;53.124;6.092;2022-11-20T09:01:22;11.27;;;5.40;;
57263;SDS011;43113;53.124;6.092;2022-11-20T09:03:48;8.53;;;4.40;;
57263;SDS011;43113;53.124;6.092;2022-11-20T09:06:14;8.70;;;5.27;;
57263;SDS011;43113;53.124;6.092;2022-11-20T09:08:41;10.03;;;5.83;;
57263;SDS011;43113;53.124;6.092;2022-11-20T09:11:07;10.53;;;5.63;;
57263;SDS011;43113;53.124;6.092;2022-11-20T09:13:33;9.73;;;5.37;;
57263;SDS011;43113;53.124;6.092;2022-11-20T09:16:04;10.03;;;4.43;;
57263;SDS011;43113;53.124;6.092;2022-11-20T09:18:32;10.80;;;5.13;;
57263;SDS011;43113;53.124;6.092;2022-11-20T09:21:02;10.50;;;5.43;;
57263;SDS011;43113;53.124;6.092;2022-11-20T09:23:36;8.40;;;4.80;;
57263;SDS011;43113;53.124;6.092;2022-11-20T09:26:03;8.20;;;4.10;;
57263;SDS011;43113;53.124;6.092;2022-11-20T09:28:30;8.80;;;4.80;;
57263;SDS011;43113;53.124;6.092;2022-11-20T09:30:56;7.80;;;4.10;;
57263;SDS011;43113;53.124;6.092;2022-11-20T09:33:22;9.07;;;5.00;;
57263;SDS011;43113;53.124;6.092;2022-11-20T09:35:48;9.43;;;4.83;;
57263;SDS011;43113;53.124;6.092;2022-11-20T09:38:13;11.57;;;5.47;;
57263;SDS011;43113;53.124;6.092;2022-11-20T09:44:18;7.73;;;4.67;;
57263;SDS011;43113;53.124;6.092;2022-11-20T09:46:57;9.83;;;4.83;;
57263;SDS011;43113;53.124;6.092;2022-11-20T09:52:25;9.77;;;5.32;;
57263;SDS011;43113;53.124;6.092;2022-11-20T09:55:21;9.63;;;4.68;;
57263;SDS011;43113;53.124;6.092;2022-11-20T09:57:48;11.37;;;5.30;;
57263;SDS011;43113;53.124;6.092;2022-11-20T10:00:17;11.03;;;5.47;;
57263;SDS011;43113;53.124;6.092;2022-11-20T10:05:18;8.68;;;4.53;;
57263;SDS011;43113;53.124;6.092;2022-11-20T10:11:00;12.85;;;5.60;;
57263;SDS011;43113;53.124;6.092;2022-11-20T10:18:36;11.63;;;5.32;;
57263;SDS011;43113;53.124;6.092;2022-11-20T10:21:38;9.32;;;4.93;;
57263;SDS011;43113;53.124;6.092;2022-11-20T10:30:16;10.65;;;5.53;;
57263;SDS011;43113;53.124;6.092;2022-11-20T10:32:45;8.93;;;4.90;;
57263;SDS011;43113;53.124;6.092;2022-11-20T10:37:41;7.90;;;4.32;;
57263;SDS011;43113;53.124;6.092;2022-11-20T10:40:21;7.55;;;4.55;;
57263;SDS011;43113;53.124;6.092;2022-11-20T10:43:08;8.32;;;4.93;;
57263;SDS011;43113;53.124;6.092;2022-11-20T10:48:45;8.05;;;4.10;;
57263;SDS011;43113;53.124;6.092;2022-11-20T10:51:26;7.90;;;4.00;;
57263;SDS011;43113;53.124;6.092;2022-11-20T10:54:27;9.32;;;4.30;;
57263;SDS011;43113;53.124;6.092;2022-11-20T10:56:58;7.63;;;3.70;;
57263;SDS011;43113;53.124;6.092;2022-11-20T11:02:23;7.97;;;4.13;;
57263;SDS011;43113;53.124;6.092;2022-11-20T11:04:57;7.57;;;4.20;;
57263;SDS011;43113;53.124;6.092;2022-11-20T11:07:36;7.15;;;3.90;;
57263;SDS011;43113;53.124;6.092;2022-11-20T11:10:24;9.25;;;4.00;;
57263;SDS011;43113;53.124;6.092;2022-11-20T11:12:51;6.07;;;3.65;;
57263;SDS011;43113;53.124;6.092;2022-11-20T11:17:52;7.30;;;3.67;;
57263;SDS011;43113;53.124;6.092;2022-11-20T11:20:19;7.20;;;3.75;;
57263;SDS011;43113;53.124;6.092;2022-11-20T11:22:47;7.85;;;4.05;;
57263;SDS011;43113;53.124;6.092;2022-11-20T11:25:20;8.20;;;4.28;;
57263;SDS011;43113;53.124;6.092;2022-11-20T11:27:51;8.25;;;4.07;;
57263;SDS011;43113;53.124;6.092;2022-11-20T11:30:19;8.77;;;4.07;;
57263;SDS011;43113;53.124;6.092;2022-11-20T11:32:45;9.02;;;3.80;;
57263;SDS011;43113;53.124;6.092;2022-11-20T11:35:22;10.32;;;3.95;;
57263;SDS011;43113;53.124;6.092;2022-11-20T11:37:48;7.55;;;3.55;;
57263;SDS011;43113;53.124;6.092;2022-11-20T11:40:14;8.68;;;4.15;;
57263;SDS011;43113;53.124;6.092;2022-11-20T11:42:43;6.25;;;3.30;;
57263;SDS011;43113;53.124;6.092;2022-11-20T11:45:15;6.85;;;3.95;;
57263;SDS011;43113;53.124;6.092;2022-11-20T11:52:36;6.55;;;3.45;;
57263;SDS011;43113;53.124;6.092;2022-11-20T11:57:57;9.30;;;3.63;;
57263;SDS011;43113;53.124;6.092;2022-11-20T12:00:57;7.55;;;3.88;;
57263;SDS011;43113;53.124;6.092;2022-11-20T12:03:29;6.43;;;3.55;;
57263;SDS011;43113;53.124;6.092;2022-11-20T12:06:16;6.13;;;3.28;;
57263;SDS011;43113;53.124;6.092;2022-11-20T12:08:44;5.07;;;3.03;;
57263;SDS011;43113;53.124;6.092;2022-11-20T12:16:36;6.53;;;3.30;;
57263;SDS011;43113;53.124;6.092;2022-11-20T12:19:07;5.05;;;2.88;;
57263;SDS011;43113;53.124;6.092;2022-11-20T12:32:34;7.00;;;3.85;;
57263;SDS011;43113;53.124;6.092;2022-11-20T12:40:31;7.93;;;3.60;;
57263;SDS011;43113;53.124;6.092;2022-11-20T12:43:22;6.00;;;3.00;;
57263;SDS011;43113;53.124;6.092;2022-11-20T12:48:52;11.07;;;2.83;;
57263;SDS011;43113;53.124;6.092;2022-11-20T12:51:37;5.95;;;3.08;;
57263;SDS011;43113;53.124;6.092;2022-11-20T12:57:00;5.35;;;2.80;;
57263;SDS011;43113;53.124;6.092;2022-11-20T13:01:57;10.23;;;4.25;;
57263;SDS011;43113;53.124;6.092;2022-11-20T13:07:17;5.43;;;2.95;;
57263;SDS011;43113;53.124;6.092;2022-11-20T13:09:46;5.50;;;3.00;;
57263;SDS011;43113;53.124;6.092;2022-11-20T13:12:27;6.13;;;3.50;;
57263;SDS011;43113;53.124;6.092;2022-11-20T13:15:26;6.07;;;3.33;;
57263;SDS011;43113;53.124;6.092;2022-11-20T13:18:02;7.47;;;3.30;;
57263;SDS011;43113;53.124;6.092;2022-11-20T13:20:30;5.97;;;3.10;;
57263;SDS011;43113;53.124;6.092;2022-11-20T13:22:58;6.72;;;3.22;;
57263;SDS011;43113;53.124;6.092;2022-11-20T13:25:28;9.25;;;4.07;;
57263;SDS011;43113;53.124;6.092;2022-11-20T13:27:57;5.70;;;3.42;;
57263;SDS011;43113;53.124;6.092;2022-11-20T13:30:28;6.97;;;3.40;;
57263;SDS011;43113;53.124;6.092;2022-11-20T13:35:37;5.88;;;3.13;;
57263;SDS011;43113;53.124;6.092;2022-11-20T13:38:11;6.55;;;2.97;;
57263;SDS011;43113;53.124;6.092;2022-11-20T13:40:49;5.68;;;3.03;;
57263;SDS011;43113;53.124;6.092;2022-11-20T13:43:32;5.47;;;3.10;;
57263;SDS011;43113;53.124;6.092;2022-11-20T13:46:04;6.30;;;3.75;;
57263;SDS011;43113;53.124;6.092;2022-11-20T13:59:48;8.63;;;3.13;;
57263;SDS011;43113;53.124;6.092;2022-11-20T14:02:18;7.55;;;3.28;;
57263;SDS011;43113;53.124;6.092;2022-11-20T14:04:50;5.90;;;3.38;;
57263;SDS011;43113;53.124;6.092;2022-11-20T14:07:21;6.45;;;3.30;;
57263;SDS011;43113;53.124;6.092;2022-11-20T14:12:33;5.47;;;3.30;;
57263;SDS011;43113;53.124;6.092;2022-11-20T14:15:02;9.35;;;4.18;;
57263;SDS011;43113;53.124;6.092;2022-11-20T14:17:32;8.15;;;3.10;;
57263;SDS011;43113;53.124;6.092;2022-11-20T14:20:00;7.07;;;3.80;;
57263;SDS011;43113;53.124;6.092;2022-11-20T14:22:31;7.80;;;3.93;;
57263;SDS011;43113;53.124;6.092;2022-11-20T14:27:38;9.07;;;3.90;;
57263;SDS011;43113;53.124;6.092;2022-11-20T14:30:11;12.90;;;4.50;;
57263;SDS011;43113;53.124;6.092;2022-11-20T14:32:43;9.32;;;4.03;;
57263;SDS011;43113;53.124;6.092;2022-11-20T14:35:13;9.00;;;3.78;;
57263;SDS011;43113;53.124;6.092;2022-11-20T14:37:44;6.85;;;3.78;;
57263;SDS011;43113;53.124;6.092;2022-11-20T14:42:56;7.85;;;3.50;;
57263;SDS011;43113;53.124;6.092;2022-11-20T14:45:23;7.53;;;4.18;;
57263;SDS011;43113;53.124;6.092;2022-11-20T14:47:51;6.72;;;3.38;;
57263;SDS011;43113;53.124;6.092;2022-11-20T14:50:27;5.30;;;3.25;;
57263;SDS011;43113;53.124;6.092;2022-11-20T14:53:03;6.55;;;3.70;;
57263;SDS011;43113;53.124;6.092;2022-11-20T14:55:32;7.93;;;4.13;;
57263;SDS011;43113;53.124;6.092;2022-11-20T14:58:00;6.30;;;3.47;;
57263;SDS011;43113;53.124;6.092;2022-11-20T15:00:31;6.10;;;3.57;;
57263;SDS011;43113;53.124;6.092;2022-11-20T15:02:58;6.38;;;3.42;;
57263;SDS011;43113;53.124;6.092;2022-11-20T15:05:26;7.40;;;3.15;;
57263;SDS011;43113;53.124;6.092;2022-11-20T15:08:12;8.13;;;3.42;;
57263;SDS011;43113;53.124;6.092;2022-11-20T15:10:38;7.57;;;3.40;;
57263;SDS011;43113;53.124;6.092;2022-11-20T15:13:11;7.43;;;3.38;;
57263;SDS011;43113;53.124;6.092;2022-11-20T15:18:12;6.20;;;3.45;;
57263;SDS011;43113;53.124;6.092;2022-11-20T15:20:40;6.83;;;3.80;;
57263;SDS011;43113;53.124;6.092;2022-11-20T15:23:10;8.23;;;3.30;;
57263;SDS011;43113;53.124;6.092;2022-11-20T15:25:38;7.63;;;4.00;;
57263;SDS011;43113;53.124;6.092;2022-11-20T15:28:07;8.67;;;3.87;;
57263;SDS011;43113;53.124;6.092;2022-11-20T15:30:46;9.20;;;3.80;;
57263;SDS011;43113;53.124;6.092;2022-11-20T15:33:13;6.83;;;3.67;;
57263;SDS011;43113;53.124;6.092;2022-11-20T15:35:39;7.17;;;4.20;;
57263;SDS011;43113;53.124;6.092;2022-11-20T15:38:05;6.18;;;3.58;;
57263;SDS011;43113;53.124;6.092;2022-11-20T15:40:31;7.53;;;3.97;;
57263;SDS011;43113;53.124;6.092;2022-11-20T15:42:57;9.67;;;4.20;;
57263;SDS011;43113;53.124;6.092;2022-11-20T15:45:45;8.03;;;4.20;;
57263;SDS011;43113;53.124;6.092;2022-11-20T15:48:31;9.70;;;4.20;;
57263;SDS011;43113;53.124;6.092;2022-11-20T15:53:30;8.33;;;4.03;;
57263;SDS011;43113;53.124;6.092;2022-11-20T15:55:56;8.13;;;4.40;;
57263;SDS011;43113;53.124;6.092;2022-11-20T15:58:22;7.90;;;4.03;;
57263;SDS011;43113;53.124;6.092;2022-11-20T16:00:49;8.70;;;4.60;;
57263;SDS011;43113;53.124;6.092;2022-11-20T16:03:15;9.30;;;4.63;;
57263;SDS011;43113;53.124;6.092;2022-11-20T16:05:42;9.77;;;4.20;;
57263;SDS011;43113;53.124;6.092;2022-11-20T16:08:08;9.73;;;4.83;;
57263;SDS011;43113;53.124;6.092;2022-11-20T16:10:34;9.03;;;4.30;;
57263;SDS011;43113;53.124;6.092;2022-11-20T16:13:00;9.03;;;4.40;;
57263;SDS011;43113;53.124;6.092;2022-11-20T16:15:45;12.57;;;5.37;;
57263;SDS011;43113;53.124;6.092;2022-11-20T16:18:18;9.40;;;4.97;;
57263;SDS011;43113;53.124;6.092;2022-11-20T16:20:47;10.30;;;5.03;;
57263;SDS011;43113;53.124;6.092;2022-11-20T16:23:16;7.97;;;5.00;;
57263;SDS011;43113;53.124;6.092;2022-11-20T16:25:42;7.70;;;4.47;;
57263;SDS011;43113;53.124;6.092;2022-11-20T16:28:08;15.53;;;5.40;;
57263;SDS011;43113;53.124;6.092;2022-11-20T16:30:34;10.23;;;5.33;;
57263;SDS011;43113;53.124;6.092;2022-11-20T16:33:01;8.57;;;4.68;;
57263;SDS011;43113;53.124;6.092;2022-11-20T16:35:27;9.00;;;4.83;;
57263;SDS011;43113;53.124;6.092;2022-11-20T16:37:54;9.17;;;5.17;;
57263;SDS011;43113;53.124;6.092;2022-11-20T16:40:20;9.50;;;4.57;;
57263;SDS011;43113;53.124;6.092;2022-11-20T16:42:47;7.97;;;4.73;;
57263;SDS011;43113;53.124;6.092;2022-11-20T16:45:12;13.23;;;5.33;;
57263;SDS011;43113;53.124;6.092;2022-11-20T16:47:39;10.10;;;5.13;;
57263;SDS011;43113;53.124;6.092;2022-11-20T16:50:04;9.47;;;4.87;;
57263;SDS011;43113;53.124;6.092;2022-11-20T16:52:30;9.20;;;4.90;;
57263;SDS011;43113;53.124;6.092;2022-11-20T16:54:57;9.37;;;3.87;;